createdAt,value
2023-01-07T00:01:09.671Z,71.10
2023-01-07T00:03:37.611Z,70.30
2023-01-07T00:06:09.579Z,69.80
2023-01-07T00:08:38.234Z,69.40
2023-01-07T00:11:10.135Z,69.40
2023-01-07T00:13:37.431Z,68.80
2023-01-07T00:16:09.311Z,69.20
2023-01-07T00:18:37.071Z,69.50
2023-01-07T00:21:06.661Z,69.20
2023-01-07T00:23:34.612Z,68.60
2023-01-07T00:26:04.056Z,68.00
2023-01-07T00:28:31.175Z,67.10
2023-01-07T00:31:02.567Z,66.70
2023-01-07T00:33:29.378Z,66.90
2023-01-07T00:36:00.942Z,66.90
2023-01-07T00:38:27.761Z,67.00
2023-01-07T00:40:54.673Z,66.80
2023-01-07T00:43:21.608Z,66.60
2023-01-07T00:45:48.572Z,65.50
2023-01-07T00:48:15.824Z,64.60
2023-01-07T00:50:42.532Z,64.50
2023-01-07T00:53:11.040Z,64.80
2023-01-07T00:55:38.280Z,65.10
2023-01-07T00:58:05.410Z,65.50
2023-01-07T01:00:32.586Z,64.90
2023-01-07T01:02:59.537Z,64.90
2023-01-07T01:05:26.572Z,65.80
2023-01-07T01:07:53.217Z,66.70
2023-01-07T01:10:20.710Z,66.20
2023-01-07T01:12:49.791Z,66.30
2023-01-07T01:15:17.428Z,66.10
2023-01-07T01:17:44.331Z,65.80
2023-01-07T01:20:14.077Z,66.30
2023-01-07T01:22:41.309Z,66.20
2023-01-07T01:25:09.128Z,66.30
2023-01-07T01:27:36.304Z,66.20
2023-01-07T01:30:03.620Z,65.90
2023-01-07T01:32:30.377Z,65.90
2023-01-07T01:34:57.178Z,65.70
2023-01-07T01:37:24.316Z,66.90
2023-01-07T01:39:51.030Z,66.70
2023-01-07T01:42:22.070Z,66.60
2023-01-07T01:44:48.987Z,66.50
2023-01-07T01:47:34.359Z,67.60
2023-01-07T01:50:16.924Z,67.50
2023-01-07T01:52:51.605Z,67.70
2023-01-07T01:55:21.997Z,67.90
2023-01-07T01:57:53.320Z,67.90
2023-01-07T02:00:20.188Z,67.50
2023-01-07T02:02:50.878Z,67.30
2023-01-07T02:05:18.094Z,66.80
2023-01-07T02:07:44.785Z,66.60
2023-01-07T02:10:20.220Z,66.00
2023-01-07T02:13:36.183Z,66.50
2023-01-07T02:16:15.937Z,66.70
2023-01-07T02:19:07.187Z,67.20
2023-01-07T02:21:39.908Z,67.20
2023-01-07T02:24:40.761Z,67.10
2023-01-07T02:27:33.237Z,66.90
2023-01-07T02:30:25.260Z,66.20
2023-01-07T02:33:03.569Z,66.50
2023-01-07T02:36:14.069Z,66.60
2023-01-07T02:38:53.160Z,66.80
2023-01-07T02:41:29.060Z,66.60
2023-01-07T02:44:22.743Z,66.50
2023-01-07T02:47:11.593Z,66.80
2023-01-07T02:49:38.331Z,66.50
2023-01-07T02:52:18.025Z,66.80
2023-01-07T02:54:49.103Z,66.50
2023-01-07T02:57:31.796Z,66.00
2023-01-07T03:00:13.859Z,66.00
2023-01-07T03:03:08.434Z,66.20
2023-01-07T03:05:53.287Z,65.90
2023-01-07T03:08:34.956Z,65.60
2023-01-07T03:11:08.302Z,64.70
2023-01-07T03:14:14.672Z,64.70
2023-01-07T03:16:47.382Z,64.70
2023-01-07T03:19:18.432Z,64.40
2023-01-07T03:21:47.635Z,64.50
2023-01-07T03:24:16.291Z,64.30
2023-01-07T03:26:50.283Z,64.00
2023-01-07T03:29:18.483Z,64.10
2023-01-07T03:32:08.161Z,64.40
2023-01-07T03:34:37.102Z,64.30
2023-01-07T03:37:11.023Z,64.80
2023-01-07T03:39:39.565Z,64.80
2023-01-07T03:42:29.151Z,64.80
2023-01-07T03:44:56.193Z,65.00
2023-01-07T03:47:23.304Z,64.90
2023-01-07T03:49:50.033Z,64.90
2023-01-07T03:52:16.802Z,64.70
2023-01-07T03:54:43.485Z,64.10
2023-01-07T03:57:10.222Z,63.90
2023-01-07T03:59:36.961Z,64.60
2023-01-07T04:02:03.866Z,64.20
2023-01-07T04:04:32.444Z,64.40
2023-01-07T04:06:59.229Z,64.10
2023-01-07T04:09:26.048Z,64.40
2023-01-07T04:11:52.794Z,64.70
2023-01-07T04:14:19.520Z,64.70
2023-01-07T04:16:46.354Z,64.90
2023-01-07T04:19:13.220Z,64.60
2023-01-07T04:21:39.965Z,64.60
2023-01-07T04:24:07.162Z,64.80
2023-01-07T04:26:33.925Z,65.20
2023-01-07T04:29:00.753Z,65.30
2023-01-07T04:31:27.560Z,65.50
2023-01-07T04:33:54.307Z,65.50
2023-01-07T04:36:21.310Z,65.00
2023-01-07T04:38:48.050Z,64.70
2023-01-07T04:41:14.804Z,64.50
2023-01-07T04:43:41.653Z,64.40
2023-01-07T04:46:08.438Z,64.60
2023-01-07T04:48:35.245Z,65.00
2023-01-07T04:51:01.977Z,65.20
2023-01-07T04:53:28.699Z,65.20
2023-01-07T04:55:55.592Z,65.20
2023-01-07T04:58:22.392Z,65.30
2023-01-07T05:00:49.540Z,65.50
2023-01-07T05:03:16.337Z,65.40
2023-01-07T05:05:43.066Z,65.50
2023-01-07T05:08:09.784Z,65.40
2023-01-07T05:10:36.612Z,65.50
2023-01-07T05:13:07.006Z,65.00
2023-01-07T05:15:33.957Z,65.10
2023-01-07T05:18:00.737Z,64.50
2023-01-07T05:20:27.452Z,64.40
2023-01-07T05:22:54.147Z,64.30
2023-01-07T05:25:20.921Z,64.40
2023-01-07T05:27:47.653Z,64.00
2023-01-07T05:30:14.471Z,63.90
2023-01-07T05:32:41.206Z,64.40
2023-01-07T05:35:08.325Z,64.20
2023-01-07T05:37:35.086Z,64.20
2023-01-07T05:40:01.807Z,64.40
2023-01-07T05:42:28.554Z,64.30
2023-01-07T05:44:55.256Z,64.30
2023-01-07T05:47:36.338Z,64.80
2023-01-07T05:50:03.180Z,64.30
2023-01-07T05:52:29.920Z,63.80
2023-01-07T05:54:56.627Z,64.00
2023-01-07T05:57:23.332Z,64.40
2023-01-07T05:59:50.145Z,63.80
2023-01-07T06:02:17.885Z,65.10
2023-01-07T06:04:44.673Z,64.30
2023-01-07T06:07:11.525Z,64.30
2023-01-07T06:09:38.342Z,64.10
2023-01-07T06:12:05.276Z,64.20
2023-01-07T06:14:32.012Z,64.60
2023-01-07T06:16:59.568Z,64.90
2023-01-07T06:19:27.228Z,65.10
2023-01-07T06:21:53.948Z,65.40
2023-01-07T06:24:20.738Z,65.00
2023-01-07T06:26:47.481Z,65.10
2023-01-07T06:29:14.359Z,65.20
2023-01-07T06:31:41.088Z,65.20
2023-01-07T06:34:07.993Z,65.30
2023-01-07T06:36:34.754Z,66.10
2023-01-07T06:39:01.479Z,67.00
2023-01-07T06:41:28.232Z,67.30
2023-01-07T06:43:54.967Z,67.60
2023-01-07T06:46:21.817Z,67.70
2023-01-07T06:48:48.641Z,67.40
2023-01-07T06:51:15.355Z,66.70
2023-01-07T06:53:42.216Z,66.50
2023-01-07T06:56:09.025Z,66.00
2023-01-07T06:58:35.801Z,66.10
2023-01-07T07:01:07.577Z,66.70
2023-01-07T07:03:34.692Z,66.70
2023-01-07T07:06:01.411Z,67.20
2023-01-07T07:08:28.249Z,67.50
2023-01-07T07:10:55.030Z,67.50
2023-01-07T07:13:21.782Z,67.40
2023-01-07T07:15:49.818Z,67.50
2023-01-07T07:18:19.577Z,67.50
2023-01-07T07:20:47.218Z,67.40
2023-01-07T07:23:14.272Z,67.90
2023-01-07T07:25:41.117Z,68.60
2023-01-07T07:28:07.880Z,69.40
2023-01-07T07:30:45.672Z,69.50
2023-01-07T07:33:15.218Z,69.00
2023-01-07T07:35:42.337Z,69.20
2023-01-07T07:38:09.495Z,68.80
2023-01-07T07:40:36.404Z,68.50
2023-01-07T07:43:11.296Z,68.70
2023-01-07T07:45:43.539Z,69.40
2023-01-07T07:48:12.629Z,68.90
2023-01-07T07:50:39.440Z,68.10
2023-01-07T07:53:09.979Z,67.80
2023-01-07T07:55:38.208Z,67.40
2023-01-07T07:58:05.488Z,67.30
2023-01-07T08:00:32.750Z,65.50
2023-01-07T08:03:00.056Z,64.00
2023-01-07T08:05:27.960Z,64.20
2023-01-07T08:07:54.985Z,63.40
2023-01-07T08:10:22.577Z,63.50
2023-01-07T08:12:50.605Z,64.10
2023-01-07T08:15:17.770Z,63.60
2023-01-07T08:17:44.679Z,63.40
2023-01-07T08:20:12.373Z,62.90
2023-01-07T08:22:39.114Z,61.70
2023-01-07T08:25:06.324Z,61.30
2023-01-07T08:27:33.070Z,61.10
2023-01-07T08:29:59.852Z,60.50
2023-01-07T08:32:26.642Z,60.20
2023-01-07T08:34:53.496Z,60.10
2023-01-07T08:37:20.207Z,60.10
2023-01-07T08:39:46.936Z,58.50
2023-01-07T08:42:13.645Z,57.00
2023-01-07T08:44:40.381Z,57.40
2023-01-07T08:47:07.104Z,56.50
2023-01-07T08:49:33.958Z,54.30
2023-01-07T08:52:00.674Z,53.60
2023-01-07T08:54:27.588Z,53.20
2023-01-07T08:56:54.311Z,53.70
2023-01-07T08:59:21.098Z,52.80
2023-01-07T09:01:47.874Z,52.70
2023-01-07T09:04:14.682Z,51.90
2023-01-07T09:06:41.490Z,51.30
2023-01-07T09:09:08.275Z,52.10
2023-01-07T09:11:35.080Z,51.60
2023-01-07T09:14:02.502Z,51.80
2023-01-07T09:16:29.361Z,52.10
2023-01-07T09:18:56.157Z,52.40
2023-01-07T09:21:22.921Z,52.40
2023-01-07T09:23:49.742Z,53.70
2023-01-07T09:26:16.485Z,53.50
2023-01-07T09:28:43.215Z,54.20
2023-01-07T09:31:09.977Z,54.30
2023-01-07T09:33:36.740Z,53.80
2023-01-07T09:36:03.568Z,54.50
2023-01-07T09:38:30.388Z,54.90
2023-01-07T09:40:57.320Z,55.00
2023-01-07T09:44:00.971Z,53.10
2023-01-07T09:46:30.355Z,54.00
2023-01-07T09:49:03.540Z,54.10
2023-01-07T09:51:43.805Z,54.20
2023-01-07T09:54:33.843Z,53.70
2023-01-07T09:57:00.900Z,53.10
2023-01-07T09:59:28.219Z,51.10
2023-01-07T10:02:12.647Z,50.90
2023-01-07T10:04:58.856Z,50.10
2023-01-07T10:07:42.913Z,49.50
2023-01-07T10:10:17.127Z,48.70
2023-01-07T10:12:49.462Z,47.90
2023-01-07T10:15:47.201Z,46.80
2023-01-07T10:18:21.126Z,46.80
2023-01-07T10:21:13.020Z,46.60
2023-01-07T10:23:43.521Z,46.90
2023-01-07T10:26:19.496Z,45.80
2023-01-07T10:28:55.678Z,46.40
2023-01-07T10:31:25.764Z,46.20
2023-01-07T10:33:53.081Z,45.70
2023-01-07T10:36:38.914Z,44.70
2023-01-07T10:39:17.735Z,44.50
2023-01-07T10:42:00.162Z,45.00
2023-01-07T10:44:26.824Z,45.40
2023-01-07T10:47:09.548Z,46.40
2023-01-07T10:50:07.509Z,47.00
2023-01-07T10:52:37.203Z,48.10
2023-01-07T10:55:09.774Z,48.60
2023-01-07T10:57:38.728Z,49.10
2023-01-07T11:00:10.805Z,49.00
2023-01-07T11:02:38.792Z,48.80
2023-01-07T11:05:06.076Z,49.60
2023-01-07T11:07:49.868Z,49.40
2023-01-07T11:10:23.991Z,50.40
2023-01-07T11:12:55.499Z,50.30
2023-01-07T11:15:25.235Z,49.90
2023-01-07T11:17:52.161Z,50.00
2023-01-07T11:20:57.523Z,49.70
2023-01-07T11:23:36.161Z,49.60
2023-01-07T11:26:13.792Z,50.10
2023-01-07T11:29:01.971Z,49.30
2023-01-07T11:31:51.402Z,49.60
2023-01-07T11:34:25.453Z,49.30
2023-01-07T11:36:52.657Z,49.30
2023-01-07T11:39:28.067Z,50.00
2023-01-07T11:42:22.039Z,50.10
2023-01-07T11:44:48.754Z,49.60
2023-01-07T11:47:18.224Z,49.40
2023-01-07T11:49:45.882Z,48.20
2023-01-07T11:52:21.707Z,48.80
2023-01-07T11:54:52.130Z,49.30
2023-01-07T11:57:27.130Z,49.30
2023-01-07T12:00:28.701Z,49.10
2023-01-07T12:03:11.112Z,48.60
2023-01-07T12:05:39.489Z,48.00
2023-01-07T12:08:07.636Z,48.00
2023-01-07T12:10:39.105Z,47.70
2023-01-07T12:13:18.235Z,48.40
2023-01-07T12:15:53.915Z,47.50
2023-01-07T12:18:51.664Z,47.60
2023-01-07T12:21:37.138Z,47.90
2023-01-07T12:24:16.643Z,47.90
2023-01-07T12:26:58.787Z,48.00
2023-01-07T12:29:51.364Z,47.80
2023-01-07T12:32:50.619Z,48.00
2023-01-07T12:35:24.885Z,48.10
2023-01-07T12:37:58.547Z,48.20
2023-01-07T12:40:31.093Z,48.40
2023-01-07T12:43:10.904Z,48.10
2023-01-07T12:45:47.475Z,48.20
2023-01-07T12:49:05.119Z,47.70
2023-01-07T12:51:39.754Z,47.50
2023-01-07T12:54:32.373Z,48.20
2023-01-07T12:57:07.025Z,47.20
2023-01-07T12:59:48.238Z,46.80
2023-01-07T13:02:33.305Z,46.80
2023-01-07T13:05:10.270Z,46.40
2023-01-07T13:07:59.244Z,46.00
2023-01-07T13:10:33.620Z,46.00
2023-01-07T13:13:06.483Z,46.40
2023-01-07T13:15:40.305Z,46.40
2023-01-07T13:18:16.948Z,46.80
2023-01-07T13:20:50.250Z,47.60
2023-01-07T13:23:25.046Z,46.60
2023-01-07T13:26:12.196Z,46.70
2023-01-07T13:28:57.132Z,46.80
2023-01-07T13:31:50.152Z,46.20
2023-01-07T13:34:33.926Z,46.60
2023-01-07T13:37:54.461Z,46.90
2023-01-07T13:40:49.955Z,46.70
2023-01-07T13:43:32.256Z,46.40
2023-01-07T13:46:03.904Z,46.60
2023-01-07T13:48:34.679Z,46.40
2023-01-07T13:51:03.760Z,46.80
2023-01-07T13:53:46.730Z,46.60
2023-01-07T13:56:19.703Z,46.40
2023-01-07T13:58:49.750Z,46.60
2023-01-07T14:01:17.974Z,46.00
2023-01-07T14:03:58.655Z,46.00
2023-01-07T14:06:45.654Z,46.10
2023-01-07T14:09:25.884Z,46.10
2023-01-07T14:11:58.212Z,46.40
2023-01-07T14:14:46.689Z,46.70
2023-01-07T14:17:28.666Z,47.10
2023-01-07T14:20:21.394Z,47.20
2023-01-07T14:23:12.028Z,47.50
2023-01-07T14:25:41.451Z,47.60
2023-01-07T14:28:35.944Z,47.80
2023-01-07T14:31:03.418Z,48.20
2023-01-07T14:33:46.915Z,48.40
2023-01-07T14:36:15.687Z,48.70
2023-01-07T14:38:42.377Z,49.00
2023-01-07T14:41:10.462Z,49.40
2023-01-07T14:43:46.061Z,49.80
2023-01-07T14:46:24.922Z,49.70
2023-01-07T14:49:03.807Z,49.60
2023-01-07T14:51:51.591Z,49.50
2023-01-07T14:54:30.364Z,49.90
2023-01-07T14:57:35.998Z,50.00
2023-01-07T15:00:21.163Z,50.10
2023-01-07T15:03:00.510Z,50.00
2023-01-07T15:05:36.557Z,50.50
2023-01-07T15:08:27.393Z,50.60
2023-01-07T15:11:17.462Z,50.40
2023-01-07T15:14:12.446Z,50.80
2023-01-07T15:16:40.010Z,51.10
2023-01-07T15:19:09.305Z,52.50
2023-01-07T15:21:56.739Z,52.90
2023-01-07T15:24:47.572Z,52.90
2023-01-07T15:27:17.049Z,52.90
2023-01-07T15:29:53.121Z,52.90
2023-01-07T15:32:28.860Z,52.80
2023-01-07T15:34:55.752Z,52.90
2023-01-07T15:37:22.459Z,52.80
2023-01-07T15:39:55.453Z,53.00
2023-01-07T15:42:24.728Z,53.10
2023-01-07T15:44:53.924Z,53.40
2023-01-07T15:47:43.935Z,54.30
2023-01-07T15:50:25.900Z,54.10
2023-01-07T15:53:01.369Z,54.60
2023-01-07T15:55:36.211Z,55.10
2023-01-07T15:58:17.634Z,55.20
2023-01-07T16:00:48.425Z,56.00
2023-01-07T16:03:17.567Z,56.50
2023-01-07T16:05:47.229Z,60.30
2023-01-07T16:08:36.824Z,59.70
2023-01-07T16:11:06.853Z,58.30
2023-01-07T16:13:35.109Z,57.40
2023-01-07T16:16:06.537Z,57.60
2023-01-07T16:18:33.702Z,58.00
2023-01-07T16:21:08.235Z,58.00
2023-01-07T16:23:38.962Z,58.40
2023-01-07T16:26:16.434Z,58.50
2023-01-07T16:28:57.252Z,58.80
2023-01-07T16:31:26.523Z,58.90
2023-01-07T16:33:56.723Z,58.60
2023-01-07T16:36:32.174Z,58.40
2023-01-07T16:39:06.343Z,58.70
2023-01-07T16:41:34.197Z,59.00
2023-01-07T16:44:01.149Z,59.10
2023-01-07T16:46:33.125Z,60.00
2023-01-07T16:49:16.144Z,59.40
2023-01-07T16:51:54.078Z,60.20
2023-01-07T16:54:26.770Z,60.60
2023-01-07T16:57:02.303Z,60.70
2023-01-07T16:59:34.581Z,61.00
2023-01-07T17:02:30.272Z,60.70
2023-01-07T17:05:18.981Z,61.00
2023-01-07T17:07:54.614Z,61.20
2023-01-07T17:10:21.280Z,61.30
2023-01-07T17:13:23.355Z,61.30
2023-01-07T17:15:50.432Z,61.30
2023-01-07T17:18:17.108Z,61.00
2023-01-07T17:21:01.805Z,61.20
2023-01-07T17:23:31.686Z,61.40
2023-01-07T17:26:03.759Z,61.90
2023-01-07T17:28:36.795Z,62.40
2023-01-07T17:31:04.159Z,62.70
2023-01-07T17:33:30.938Z,63.20
2023-01-07T17:35:57.680Z,63.80
2023-01-07T17:38:24.490Z,64.70
2023-01-07T17:40:52.198Z,65.50
2023-01-07T17:43:33.587Z,65.50
2023-01-07T17:46:06.315Z,66.00
2023-01-07T17:48:33.806Z,65.90
2023-01-07T17:51:01.436Z,65.80
2023-01-07T17:53:43.564Z,66.50
2023-01-07T17:56:10.635Z,66.70
2023-01-07T17:58:38.213Z,67.00
2023-01-07T18:01:09.905Z,67.30
2023-01-07T18:03:37.079Z,67.50
2023-01-07T18:06:04.230Z,67.90
2023-01-07T18:08:30.960Z,68.00
2023-01-07T18:11:16.451Z,68.60
2023-01-07T18:13:43.444Z,68.70
2023-01-07T18:16:14.355Z,68.40
2023-01-07T18:18:41.141Z,68.50
2023-01-07T18:21:11.395Z,68.70
2023-01-07T18:23:38.648Z,68.10
2023-01-07T18:26:06.169Z,69.20
2023-01-07T18:28:32.938Z,69.40
2023-01-07T18:30:59.698Z,69.60
2023-01-07T18:33:26.660Z,69.60
2023-01-07T18:35:53.587Z,69.30
2023-01-07T18:38:20.360Z,69.90
2023-01-07T18:40:47.191Z,70.30
2023-01-07T18:43:15.875Z,70.00
2023-01-07T18:45:43.912Z,69.60
2023-01-07T18:48:12.983Z,69.90
2023-01-07T18:50:48.196Z,69.50
2023-01-07T18:53:16.023Z,69.70
2023-01-07T18:55:43.948Z,69.60
2023-01-07T18:58:13.901Z,69.70
2023-01-07T19:00:41.255Z,70.00
2023-01-07T19:03:08.068Z,69.70
2023-01-07T19:05:34.817Z,69.80
2023-01-07T19:08:01.538Z,70.80
2023-01-07T19:10:28.405Z,71.10
2023-01-07T19:12:55.207Z,71.50
2023-01-07T19:15:22.000Z,71.40
2023-01-07T19:17:48.702Z,71.60
2023-01-07T19:20:16.442Z,71.70
2023-01-07T19:22:43.198Z,71.70
2023-01-07T19:25:10.127Z,72.00
2023-01-07T19:27:36.943Z,72.40
2023-01-07T19:30:04.312Z,73.10
2023-01-07T19:32:31.125Z,73.50
2023-01-07T19:34:57.878Z,73.80
2023-01-07T19:37:24.637Z,74.20
2023-01-07T19:39:51.347Z,73.90
2023-01-07T19:42:18.155Z,74.10
2023-01-07T19:44:44.863Z,73.90
2023-01-07T19:47:11.743Z,74.60
2023-01-07T19:49:38.931Z,74.80
2023-01-07T19:52:05.770Z,75.10
2023-01-07T19:54:32.501Z,75.10
2023-01-07T19:56:59.199Z,74.40
2023-01-07T19:59:25.969Z,73.90
2023-01-07T20:01:53.697Z,73.80
2023-01-07T20:04:20.680Z,74.00
2023-01-07T20:06:47.828Z,74.00
2023-01-07T20:09:14.704Z,74.30
2023-01-07T20:11:43.071Z,75.30
2023-01-07T20:14:11.987Z,75.20
2023-01-07T20:16:41.376Z,74.90
2023-01-07T20:19:11.251Z,74.50
2023-01-07T20:21:39.149Z,73.80
2023-01-07T20:24:06.429Z,74.10
2023-01-07T20:26:34.127Z,74.10
2023-01-07T20:29:01.825Z,74.60
2023-01-07T20:31:30.526Z,74.40
2023-01-07T20:33:58.027Z,74.30
2023-01-07T20:36:27.793Z,74.30
2023-01-07T20:38:54.572Z,74.90
2023-01-07T20:41:24.429Z,74.20
2023-01-07T20:43:56.224Z,74.10
2023-01-07T20:46:24.318Z,74.20
2023-01-07T20:48:51.904Z,74.10
2023-01-07T20:51:19.638Z,74.00
2023-01-07T20:53:47.059Z,75.00
2023-01-07T20:56:17.549Z,74.90
2023-01-07T20:58:44.850Z,75.10
2023-01-07T21:01:13.995Z,74.90
2023-01-07T21:03:41.640Z,74.70
2023-01-07T21:06:10.652Z,74.30
2023-01-07T21:08:37.931Z,73.90
2023-01-07T21:11:07.998Z,74.30
2023-01-07T21:13:34.718Z,74.80
2023-01-07T21:16:05.789Z,74.80
2023-01-07T21:18:33.906Z,75.00
2023-01-07T21:21:01.812Z,74.60
2023-01-07T21:23:28.593Z,74.50
2023-01-07T21:25:55.289Z,74.10
2023-01-07T21:28:21.982Z,73.70
2023-01-07T21:30:48.888Z,73.60
2023-01-07T21:33:16.057Z,73.80
2023-01-07T21:35:42.990Z,73.80
2023-01-07T21:38:10.137Z,73.50
2023-01-07T21:40:39.327Z,73.30
2023-01-07T21:43:06.154Z,74.30
2023-01-07T21:45:33.234Z,75.20
2023-01-07T21:48:00.017Z,75.10
2023-01-07T21:50:26.950Z,74.70
2023-01-07T21:52:53.734Z,74.50
2023-01-07T21:55:20.477Z,74.30
2023-01-07T21:57:47.172Z,74.70
2023-01-07T22:00:14.640Z,74.60
2023-01-07T22:02:41.479Z,74.40
2023-01-07T22:05:08.832Z,74.20
2023-01-07T22:07:35.629Z,74.10
2023-01-07T22:10:02.530Z,73.80
2023-01-07T22:12:29.365Z,73.70
2023-01-07T22:14:56.290Z,73.20
2023-01-07T22:17:24.508Z,73.80
2023-01-07T22:19:51.360Z,73.70
2023-01-07T22:22:20.700Z,74.00
2023-01-07T22:24:47.641Z,74.30
2023-01-07T22:27:14.561Z,74.40
2023-01-07T22:29:42.101Z,74.50
2023-01-07T22:32:10.077Z,75.30
2023-01-07T22:34:36.935Z,74.80
2023-01-07T22:37:07.155Z,73.60
2023-01-07T22:39:41.577Z,73.90
2023-01-07T22:42:18.510Z,74.40
2023-01-07T22:44:52.657Z,74.10
2023-01-07T22:47:26.735Z,73.50
2023-01-07T22:49:54.488Z,73.50
2023-01-07T22:52:21.571Z,73.50
2023-01-07T22:54:48.480Z,73.00
2023-01-07T22:57:15.519Z,72.40
2023-01-07T22:59:42.331Z,72.00
2023-01-07T23:02:09.823Z,71.80
2023-01-07T23:04:36.770Z,71.30
2023-01-07T23:07:03.653Z,71.40
2023-01-07T23:09:30.501Z,70.80
2023-01-07T23:12:00.580Z,70.60
2023-01-07T23:14:29.370Z,70.10
2023-01-07T23:16:56.896Z,69.60
2023-01-07T23:19:23.672Z,69.00
2023-01-07T23:21:53.093Z,68.60
2023-01-07T23:24:20.314Z,68.70
2023-01-07T23:26:49.032Z,68.90
2023-01-07T23:29:15.863Z,68.30
2023-01-07T23:31:42.782Z,68.00
2023-01-07T23:34:09.804Z,67.80
2023-01-07T23:36:37.586Z,68.10
2023-01-07T23:39:05.677Z,68.20
2023-01-07T23:41:32.875Z,67.70
2023-01-07T23:43:59.609Z,67.10
2023-01-07T23:46:26.406Z,67.00
2023-01-07T23:48:53.145Z,66.20
2023-01-07T23:51:21.217Z,65.50
2023-01-07T23:53:48.903Z,65.80
2023-01-07T23:56:19.088Z,65.90
2023-01-07T23:58:45.917Z,65.80
